createdAt,value
2017-10-14T00:01:32.310Z,81.60
2017-10-14T00:03:58.960Z,81.30
2017-10-14T00:06:25.587Z,81.60
2017-10-14T00:08:52.314Z,81.50
2017-10-14T00:11:18.937Z,81.40
2017-10-14T00:13:45.583Z,81.50
2017-10-14T00:16:12.199Z,81.50
2017-10-14T00:18:38.844Z,81.60
2017-10-14T00:21:05.991Z,81.50
2017-10-14T00:26:21.175Z,81.40
2017-10-14T00:28:47.800Z,81.60
2017-10-14T00:31:14.861Z,81.60
2017-10-14T00:33:41.486Z,81.60
2017-10-14T00:36:08.148Z,81.70
2017-10-14T00:38:34.807Z,81.50
2017-10-14T00:41:01.536Z,81.70
2017-10-14T00:43:28.155Z,81.50
2017-10-14T00:45:55.179Z,81.70
2017-10-14T00:48:21.851Z,81.70
2017-10-14T00:50:48.481Z,81.70
2017-10-14T00:55:51.351Z,81.50
2017-10-14T00:58:18.000Z,81.70
2017-10-14T01:00:44.647Z,81.70
2017-10-14T01:03:11.307Z,81.70
2017-10-14T01:05:38.347Z,81.60
2017-10-14T01:08:04.967Z,81.60
2017-10-14T01:10:31.611Z,81.70
2017-10-14T01:12:58.254Z,81.60
2017-10-14T01:15:24.895Z,81.60
2017-10-14T01:17:51.520Z,81.60
2017-10-14T01:20:18.172Z,81.60
2017-10-14T01:22:44.795Z,81.80
2017-10-14T01:25:11.423Z,81.90
2017-10-14T01:27:38.071Z,81.70
2017-10-14T01:30:04.698Z,81.80
2017-10-14T01:32:31.348Z,81.70
2017-10-14T01:34:57.994Z,81.70
2017-10-14T01:37:24.673Z,81.60
2017-10-14T01:39:51.703Z,81.70
2017-10-14T01:42:18.327Z,81.70
2017-10-14T01:44:44.971Z,81.80
2017-10-14T01:47:11.618Z,81.60
2017-10-14T01:49:38.264Z,81.90
2017-10-14T01:52:04.887Z,81.70
2017-10-14T01:54:31.510Z,81.70
2017-10-14T01:56:58.164Z,81.90
2017-10-14T01:59:24.791Z,81.90
2017-10-14T02:01:51.458Z,81.70
2017-10-14T02:04:18.091Z,81.80
2017-10-14T02:06:44.759Z,81.80
2017-10-14T02:09:11.379Z,81.80
2017-10-14T02:11:38.012Z,81.70
2017-10-14T02:14:04.668Z,81.80
2017-10-14T02:16:31.295Z,81.90
2017-10-14T02:18:57.965Z,82.10
2017-10-14T02:21:24.986Z,81.90
2017-10-14T02:23:51.835Z,81.90
2017-10-14T02:26:18.459Z,81.90
2017-10-14T02:28:45.122Z,82.10
2017-10-14T02:31:11.750Z,82.10
2017-10-14T02:33:38.383Z,81.90
2017-10-14T02:36:05.036Z,82.20
2017-10-14T02:38:31.675Z,81.90
2017-10-14T02:40:58.325Z,82.10
2017-10-14T02:43:25.360Z,82.10
2017-10-14T02:45:52.015Z,82.10
2017-10-14T02:48:19.049Z,82.10
2017-10-14T02:50:45.707Z,82.10
2017-10-14T02:53:12.739Z,81.90
2017-10-14T02:55:39.372Z,82.30
2017-10-14T02:58:06.032Z,82.20
2017-10-14T03:00:33.054Z,82.20
2017-10-14T03:02:59.707Z,82.20
2017-10-14T03:05:26.347Z,82.20
2017-10-14T03:07:52.995Z,82.10
2017-10-14T03:10:19.628Z,82.30
2017-10-14T03:12:46.300Z,81.90
2017-10-14T03:15:12.949Z,81.90
2017-10-14T03:17:39.621Z,82.30
2017-10-14T03:20:06.296Z,82.30
2017-10-14T03:22:32.944Z,82.30
2017-10-14T03:25:00.002Z,82.20
2017-10-14T03:27:27.043Z,82.50
2017-10-14T03:29:54.101Z,82.20
2017-10-14T03:32:21.140Z,82.20
2017-10-14T03:34:48.217Z,82.20
2017-10-14T03:37:14.858Z,82.20
2017-10-14T03:39:41.909Z,82.20
2017-10-14T03:42:08.584Z,82.30
2017-10-14T03:44:35.228Z,82.20
2017-10-14T03:47:01.899Z,82.20
2017-10-14T03:49:28.537Z,82.40
2017-10-14T03:51:55.242Z,82.20
2017-10-14T03:54:21.882Z,82.20
2017-10-14T03:56:48.531Z,82.10
2017-10-14T03:59:15.198Z,82.20
2017-10-14T04:01:41.841Z,82.30
2017-10-14T04:04:08.502Z,82.40
2017-10-14T04:06:35.133Z,82.30
2017-10-14T04:09:02.197Z,82.30
2017-10-14T04:11:29.513Z,82.30
2017-10-14T04:13:56.189Z,82.50
2017-10-14T04:16:22.830Z,82.10
2017-10-14T04:18:49.473Z,82.40
2017-10-14T04:21:16.140Z,82.50
2017-10-14T04:23:43.333Z,82.20
2017-10-14T04:26:09.999Z,81.90
2017-10-14T04:28:36.646Z,82.30
2017-10-14T04:31:03.313Z,82.10
2017-10-14T04:33:29.958Z,82.40
2017-10-14T04:35:57.212Z,82.40
2017-10-14T04:38:23.853Z,82.20
2017-10-14T04:40:50.517Z,82.30
2017-10-14T04:43:17.393Z,82.10
2017-10-14T04:45:44.975Z,82.40
2017-10-14T04:48:11.666Z,82.50
2017-10-14T04:50:38.326Z,82.40
2017-10-14T04:53:05.400Z,82.10
2017-10-14T04:55:32.049Z,82.40
2017-10-14T04:57:59.874Z,82.20
2017-10-14T05:00:26.509Z,82.30
2017-10-14T05:02:53.192Z,82.30
2017-10-14T05:05:19.829Z,82.30
2017-10-14T05:07:46.466Z,82.20
2017-10-14T05:10:13.139Z,82.30
2017-10-14T05:12:39.781Z,82.10
2017-10-14T05:15:06.457Z,82.10
2017-10-14T05:17:33.093Z,82.40
2017-10-14T05:19:59.758Z,82.30
2017-10-14T05:22:26.789Z,82.20
2017-10-14T05:24:53.473Z,82.30
2017-10-14T05:27:20.166Z,82.30
2017-10-14T05:29:46.809Z,82.20
2017-10-14T05:32:13.474Z,82.20
2017-10-14T05:34:40.118Z,82.20
2017-10-14T05:37:06.795Z,82.20
2017-10-14T05:39:33.469Z,82.40
2017-10-14T05:42:00.142Z,82.30
2017-10-14T05:44:26.786Z,82.10
2017-10-14T05:46:53.482Z,81.90
2017-10-14T05:49:20.130Z,82.40
2017-10-14T05:51:46.769Z,82.30
2017-10-14T05:54:13.444Z,82.20
2017-10-14T05:56:40.086Z,82.10
2017-10-14T05:59:07.150Z,82.30
2017-10-14T06:01:33.810Z,82.10
2017-10-14T06:04:00.469Z,82.10
2017-10-14T06:06:27.317Z,81.90
2017-10-14T06:08:53.993Z,82.10
2017-10-14T06:11:20.638Z,82.10
2017-10-14T06:13:47.313Z,82.00
2017-10-14T06:16:13.981Z,81.80
2017-10-14T06:18:40.634Z,82.10
2017-10-14T06:21:07.301Z,82.10
2017-10-14T06:26:23.058Z,82.30
2017-10-14T06:28:49.726Z,82.30
2017-10-14T06:31:16.806Z,82.20
2017-10-14T06:33:43.445Z,82.20
2017-10-14T06:36:10.754Z,82.10
2017-10-14T06:38:37.404Z,82.20
2017-10-14T06:41:06.328Z,82.40
2017-10-14T06:43:32.961Z,82.30
2017-10-14T06:45:59.614Z,82.10
2017-10-14T06:48:26.282Z,82.40
2017-10-14T06:50:52.922Z,82.30
2017-10-14T06:55:56.262Z,81.90
2017-10-14T06:58:22.939Z,82.20
2017-10-14T07:00:51.222Z,82.50
2017-10-14T07:03:18.821Z,82.60
2017-10-14T07:05:45.457Z,82.40
2017-10-14T07:08:12.102Z,82.30
2017-10-14T07:10:39.402Z,82.50
2017-10-14T07:13:06.430Z,82.20
2017-10-14T07:15:33.089Z,82.30
2017-10-14T07:17:59.742Z,82.30
2017-10-14T07:20:26.460Z,82.40
2017-10-14T07:22:53.099Z,82.20
2017-10-14T07:25:19.794Z,82.20
2017-10-14T07:27:46.506Z,82.40
2017-10-14T07:30:13.143Z,82.20
2017-10-14T07:32:39.837Z,82.20
2017-10-14T07:35:07.146Z,82.20
2017-10-14T07:37:33.845Z,82.50
2017-10-14T07:40:00.502Z,82.40
2017-10-14T07:42:27.162Z,82.20
2017-10-14T07:44:53.794Z,82.30
2017-10-14T07:47:20.965Z,82.50
2017-10-14T07:49:47.609Z,82.40
2017-10-14T07:52:14.395Z,82.30
2017-10-14T07:54:41.103Z,82.40
2017-10-14T07:57:07.742Z,82.60
2017-10-14T07:59:34.436Z,82.50
2017-10-14T08:02:01.482Z,82.80
2017-10-14T08:04:28.164Z,82.80
2017-10-14T08:06:54.801Z,82.90
2017-10-14T08:09:21.456Z,82.80
2017-10-14T08:11:48.114Z,83.00
2017-10-14T08:14:15.419Z,83.20
2017-10-14T08:16:42.458Z,83.50
2017-10-14T08:19:09.974Z,83.70
2017-10-14T08:21:36.614Z,84.10
2017-10-14T08:24:03.254Z,84.00
2017-10-14T08:26:29.931Z,84.30
2017-10-14T08:28:56.570Z,84.40
2017-10-14T08:31:23.240Z,84.60
2017-10-14T08:33:49.878Z,84.60
2017-10-14T08:36:16.802Z,84.60
2017-10-14T08:38:43.442Z,84.90
2017-10-14T08:41:10.514Z,84.90
2017-10-14T08:43:37.157Z,84.90
2017-10-14T08:46:03.861Z,85.30
2017-10-14T08:48:30.545Z,85.40
2017-10-14T08:50:57.181Z,85.70
2017-10-14T08:53:24.235Z,84.20
2017-10-14T08:55:50.903Z,83.80
2017-10-14T08:58:17.589Z,83.90
2017-10-14T09:00:45.185Z,84.00
2017-10-14T09:03:11.892Z,84.00
2017-10-14T09:05:38.942Z,83.80
2017-10-14T09:08:06.646Z,83.70
2017-10-14T09:10:33.298Z,83.90
2017-10-14T09:13:00.410Z,83.80
2017-10-14T09:15:27.062Z,84.10
2017-10-14T09:17:55.134Z,84.00
2017-10-14T09:20:21.814Z,84.10
2017-10-14T09:22:51.392Z,84.30
2017-10-14T09:25:18.636Z,84.00
2017-10-14T09:27:45.289Z,84.10
2017-10-14T09:30:11.954Z,84.20
2017-10-14T09:32:39.721Z,84.20
2017-10-14T09:35:09.225Z,84.10
2017-10-14T09:37:35.868Z,84.30
2017-10-14T09:40:03.185Z,84.20
2017-10-14T09:42:29.850Z,84.20
2017-10-14T09:44:56.500Z,84.20
2017-10-14T09:47:23.175Z,84.40
2017-10-14T09:49:52.854Z,84.40
2017-10-14T09:52:21.330Z,84.40
2017-10-14T09:54:47.976Z,84.40
2017-10-14T09:57:16.082Z,84.20
2017-10-14T09:59:44.766Z,84.30
2017-10-14T10:02:11.406Z,84.30
2017-10-14T10:04:38.666Z,84.30
2017-10-14T10:07:05.309Z,84.30
2017-10-14T10:09:32.370Z,84.30
2017-10-14T10:11:59.406Z,84.40
2017-10-14T10:14:28.330Z,84.40
2017-10-14T10:16:54.974Z,84.40
2017-10-14T10:19:22.449Z,84.20
2017-10-14T10:21:49.098Z,84.30
2017-10-14T10:27:00.025Z,84.20
2017-10-14T10:29:26.666Z,84.20
2017-10-14T10:31:53.368Z,84.20
2017-10-14T10:34:20.009Z,84.30
2017-10-14T10:36:46.723Z,84.20
2017-10-14T10:39:13.362Z,84.40
2017-10-14T10:41:40.053Z,84.10
2017-10-14T10:44:06.708Z,84.30
2017-10-14T10:46:33.418Z,84.40
2017-10-14T10:49:00.061Z,84.40
2017-10-14T10:51:26.726Z,84.30
2017-10-14T10:56:42.633Z,84.30
2017-10-14T10:59:09.310Z,84.60
2017-10-14T11:01:35.985Z,84.40
2017-10-14T11:04:02.664Z,84.50
2017-10-14T11:06:29.302Z,84.60
2017-10-14T11:08:55.979Z,84.60
2017-10-14T11:11:22.620Z,84.70
2017-10-14T11:13:49.293Z,84.90
2017-10-14T11:16:15.929Z,84.50
2017-10-14T11:18:42.572Z,85.70
2017-10-14T11:21:09.242Z,85.80
2017-10-14T11:23:35.890Z,84.80
2017-10-14T11:26:02.557Z,86.20
2017-10-14T11:28:29.200Z,86.80
2017-10-14T11:30:55.885Z,86.20
2017-10-14T11:33:22.525Z,85.30
2017-10-14T11:35:49.186Z,85.60
2017-10-14T11:38:15.821Z,86.10
2017-10-14T11:40:42.501Z,85.20
2017-10-14T11:43:09.166Z,85.70
2017-10-14T11:45:35.841Z,85.80
2017-10-14T11:48:02.518Z,85.80
2017-10-14T11:50:29.155Z,85.60
2017-10-14T11:52:56.217Z,85.90
2017-10-14T11:55:22.859Z,85.90
2017-10-14T11:57:49.531Z,85.50
2017-10-14T12:00:16.176Z,85.70
2017-10-14T12:02:42.814Z,85.30
2017-10-14T12:05:09.477Z,85.40
2017-10-14T12:07:36.126Z,84.40
2017-10-14T12:10:02.795Z,84.50
2017-10-14T12:12:29.454Z,84.70
2017-10-14T12:14:56.126Z,85.80
2017-10-14T12:17:22.781Z,83.60
2017-10-14T12:19:49.441Z,85.90
2017-10-14T12:22:16.472Z,85.10
2017-10-14T12:24:43.173Z,84.20
2017-10-14T12:27:09.881Z,83.20
2017-10-14T12:29:36.513Z,85.20
2017-10-14T12:32:03.570Z,85.20
2017-10-14T12:34:30.205Z,85.20
2017-10-14T12:36:56.861Z,85.70
2017-10-14T12:39:23.498Z,85.30
2017-10-14T12:41:50.162Z,84.40
2017-10-14T12:44:16.797Z,83.30
2017-10-14T12:46:43.478Z,83.20
2017-10-14T12:49:10.158Z,85.90
2017-10-14T12:51:36.817Z,85.30
2017-10-14T12:54:03.453Z,85.50
2017-10-14T12:56:30.085Z,85.60
2017-10-14T12:58:56.741Z,83.30
2017-10-14T13:01:23.381Z,81.80
2017-10-14T13:03:50.042Z,84.30
2017-10-14T13:06:16.673Z,82.60
2017-10-14T13:08:43.333Z,82.40
2017-10-14T13:11:09.985Z,84.60
2017-10-14T13:13:36.662Z,84.30
2017-10-14T13:16:03.306Z,85.80
2017-10-14T13:18:29.941Z,84.40
2017-10-14T13:20:56.601Z,84.30
2017-10-14T13:23:23.233Z,84.30
2017-10-14T13:25:49.922Z,81.60
2017-10-14T13:28:16.558Z,84.50
2017-10-14T13:30:43.229Z,84.30
2017-10-14T13:33:10.323Z,85.80
2017-10-14T13:35:37.009Z,83.80
2017-10-14T13:38:03.645Z,85.60
2017-10-14T13:40:30.277Z,85.70
2017-10-14T13:42:56.941Z,82.50
2017-10-14T13:45:23.594Z,82.40
2017-10-14T13:47:50.259Z,82.80
2017-10-14T13:50:16.891Z,81.90
2017-10-14T13:52:43.553Z,85.40
2017-10-14T13:55:10.193Z,83.60
2017-10-14T13:57:36.857Z,83.50
2017-10-14T14:00:03.497Z,85.50
2017-10-14T14:02:30.186Z,83.30
2017-10-14T14:04:56.825Z,83.80
2017-10-14T14:07:23.482Z,82.70
2017-10-14T14:09:50.142Z,83.50
2017-10-14T14:12:16.782Z,82.00
2017-10-14T14:14:43.445Z,84.50
2017-10-14T14:17:10.081Z,83.90
2017-10-14T14:19:36.836Z,83.30
2017-10-14T14:22:03.481Z,83.30
2017-10-14T14:24:30.540Z,82.10
2017-10-14T14:26:57.173Z,82.10
2017-10-14T14:29:24.085Z,82.60
2017-10-14T14:31:50.805Z,82.10
2017-10-14T14:34:17.445Z,81.90
2017-10-14T14:36:44.112Z,85.70
2017-10-14T14:39:10.781Z,85.70
2017-10-14T14:41:37.845Z,84.40
2017-10-14T14:44:04.485Z,84.40
2017-10-14T14:46:31.151Z,85.60
2017-10-14T14:48:57.782Z,83.00
2017-10-14T14:51:24.470Z,82.20
2017-10-14T14:56:39.937Z,82.70
2017-10-14T14:59:06.582Z,84.70
2017-10-14T15:01:33.225Z,85.00
2017-10-14T15:03:59.898Z,83.70
2017-10-14T15:06:26.538Z,84.00
2017-10-14T15:08:53.205Z,83.90
2017-10-14T15:11:19.841Z,84.00
2017-10-14T15:13:46.513Z,84.40
2017-10-14T15:16:13.158Z,82.90
2017-10-14T15:18:39.829Z,82.20
2017-10-14T15:21:06.466Z,81.50
2017-10-14T15:23:33.117Z,81.70
2017-10-14T15:25:59.779Z,83.50
2017-10-14T15:28:26.425Z,84.50
2017-10-14T15:30:55.584Z,82.10
2017-10-14T15:33:22.950Z,84.00
2017-10-14T15:35:50.650Z,83.10
2017-10-14T15:38:17.298Z,81.20
2017-10-14T15:40:44.529Z,83.90
2017-10-14T15:43:14.826Z,82.90
2017-10-14T15:45:41.510Z,82.30
2017-10-14T15:48:08.146Z,83.50
2017-10-14T15:50:34.831Z,82.80
2017-10-14T15:53:01.465Z,83.90
2017-10-14T15:55:28.106Z,82.80
2017-10-14T15:57:54.777Z,82.60
2017-10-14T16:00:21.427Z,82.50
2017-10-14T16:02:49.109Z,83.70
2017-10-14T16:05:15.753Z,84.40
2017-10-14T16:07:42.409Z,84.70
2017-10-14T16:10:09.097Z,85.20
2017-10-14T16:12:35.772Z,85.20
2017-10-14T16:15:02.417Z,85.40
2017-10-14T16:17:29.072Z,85.40
2017-10-14T16:19:55.713Z,85.40
2017-10-14T16:22:22.394Z,85.40
2017-10-14T16:24:49.039Z,85.40
2017-10-14T16:27:15.711Z,85.40
2017-10-14T16:29:42.353Z,85.40
2017-10-14T16:32:08.998Z,85.60
2017-10-14T16:34:35.656Z,85.50
2017-10-14T16:37:02.291Z,85.60
2017-10-14T16:39:28.949Z,85.50
2017-10-14T16:41:55.590Z,85.60
2017-10-14T16:44:22.257Z,85.70
2017-10-14T16:46:48.901Z,85.60
2017-10-14T16:49:16.022Z,85.70
2017-10-14T16:51:42.658Z,85.70
2017-10-14T16:54:09.305Z,85.60
2017-10-14T16:56:35.973Z,85.70
2017-10-14T16:59:02.609Z,85.70
2017-10-14T17:01:29.273Z,85.80
2017-10-14T17:03:55.904Z,85.80
2017-10-14T17:06:23.017Z,85.80
2017-10-14T17:08:49.649Z,85.70
2017-10-14T17:11:16.284Z,85.70
2017-10-14T17:13:42.965Z,85.80
2017-10-14T17:16:09.607Z,85.80
2017-10-14T17:18:36.281Z,85.80
2017-10-14T17:21:03.310Z,85.70
2017-10-14T17:23:30.007Z,85.80
2017-10-14T17:25:56.663Z,85.80
2017-10-14T17:28:26.829Z,85.80
2017-10-14T17:30:53.493Z,85.90
2017-10-14T17:33:20.129Z,85.90
2017-10-14T17:35:46.790Z,85.90
2017-10-14T17:38:13.422Z,85.90
2017-10-14T17:40:40.102Z,85.90
2017-10-14T17:43:10.330Z,85.90
2017-10-14T17:45:39.470Z,85.90
2017-10-14T17:48:06.173Z,85.90
2017-10-14T17:50:34.437Z,85.90
2017-10-14T17:53:01.309Z,85.90
2017-10-14T17:55:28.346Z,85.90
2017-10-14T17:57:56.168Z,85.80
2017-10-14T18:00:22.814Z,85.80
2017-10-14T18:02:52.177Z,85.80
2017-10-14T18:05:18.818Z,85.80
2017-10-14T18:07:45.465Z,85.80
2017-10-14T18:10:12.129Z,85.80
2017-10-14T18:12:39.586Z,85.80
2017-10-14T18:15:06.250Z,85.80
2017-10-14T18:17:32.889Z,85.80
2017-10-14T18:19:59.570Z,85.80
2017-10-14T18:22:28.038Z,85.80
2017-10-14T18:24:54.679Z,85.80
2017-10-14T18:27:21.769Z,85.80
2017-10-14T18:29:49.036Z,85.70
2017-10-14T18:32:16.433Z,85.70
2017-10-14T18:34:43.065Z,85.70
2017-10-14T18:37:09.730Z,85.70
2017-10-14T18:39:36.776Z,85.70
2017-10-14T18:42:04.286Z,85.80
2017-10-14T18:44:30.929Z,85.60
2017-10-14T18:46:57.566Z,85.60
2017-10-14T18:49:24.236Z,85.60
2017-10-14T18:51:51.167Z,85.60
2017-10-14T18:57:07.121Z,85.60
2017-10-14T18:59:33.790Z,85.50
2017-10-14T19:02:00.442Z,85.60
2017-10-14T19:04:27.082Z,85.60
2017-10-14T19:06:53.746Z,85.50
2017-10-14T19:09:20.386Z,85.60
2017-10-14T19:11:47.055Z,85.50
2017-10-14T19:14:14.085Z,85.50
2017-10-14T19:16:40.749Z,85.50
2017-10-14T19:19:07.781Z,85.50
2017-10-14T19:21:34.421Z,85.50
2017-10-14T19:24:01.093Z,85.50
2017-10-14T19:26:27.731Z,85.50
2017-10-14T19:28:54.389Z,85.40
2017-10-14T19:31:21.051Z,85.40
2017-10-14T19:33:47.721Z,85.40
2017-10-14T19:36:14.371Z,85.50
2017-10-14T19:38:41.074Z,85.40
2017-10-14T19:41:07.709Z,85.40
2017-10-14T19:43:34.353Z,85.40
2017-10-14T19:46:01.038Z,85.40
2017-10-14T19:48:28.093Z,85.40
2017-10-14T19:50:54.753Z,85.40
2017-10-14T19:53:21.395Z,85.40
2017-10-14T19:55:48.062Z,85.40
2017-10-14T19:58:16.242Z,85.40
2017-10-14T20:00:42.934Z,85.30
2017-10-14T20:03:09.968Z,85.30
2017-10-14T20:05:36.610Z,85.30
2017-10-14T20:08:03.278Z,85.30
2017-10-14T20:10:29.914Z,85.30
2017-10-14T20:12:59.285Z,85.30
2017-10-14T20:15:28.487Z,85.30
2017-10-14T20:17:55.158Z,85.30
2017-10-14T20:20:21.802Z,85.30
2017-10-14T20:22:54.002Z,85.30
2017-10-14T20:25:30.169Z,85.30
2017-10-14T20:28:14.897Z,85.30
2017-10-14T20:30:48.160Z,85.30
2017-10-14T20:33:17.101Z,85.20
2017-10-14T20:38:34.034Z,85.20
2017-10-14T20:41:01.393Z,85.20
2017-10-14T20:43:28.042Z,85.20
2017-10-14T20:46:01.366Z,85.20
2017-10-14T20:48:28.005Z,85.20
2017-10-14T20:51:00.436Z,85.20
2017-10-14T20:53:27.928Z,85.10
2017-10-14T20:55:55.229Z,85.20
2017-10-14T20:58:21.900Z,85.10
2017-10-14T21:00:48.561Z,85.10
2017-10-14T21:03:15.775Z,85.10
2017-10-14T21:05:43.821Z,85.10
2017-10-14T21:08:10.478Z,85.10
2017-10-14T21:10:41.067Z,85.00
2017-10-14T21:13:08.657Z,85.00
2017-10-14T21:18:16.182Z,85.00
2017-10-14T21:20:43.217Z,85.00
2017-10-14T21:23:09.917Z,85.00
2017-10-14T21:25:36.574Z,85.00
2017-10-14T21:28:03.219Z,84.90
2017-10-14T21:30:36.222Z,85.00
2017-10-14T21:33:02.867Z,84.90
2017-10-14T21:35:36.042Z,84.90
2017-10-14T21:38:02.701Z,84.90
2017-10-14T21:40:29.369Z,84.90
2017-10-14T21:42:59.699Z,84.90
2017-10-14T21:45:27.060Z,84.90
2017-10-14T21:47:54.723Z,84.90
2017-10-14T21:50:22.085Z,84.90
2017-10-14T21:52:48.762Z,84.80
2017-10-14T21:55:17.029Z,84.80
2017-10-14T21:57:43.706Z,84.80
2017-10-14T22:00:12.068Z,84.80
2017-10-14T22:02:46.179Z,84.80
2017-10-14T22:05:12.818Z,84.80
2017-10-14T22:07:46.991Z,84.80
2017-10-14T22:10:20.326Z,84.80
2017-10-14T22:12:48.864Z,84.70
2017-10-14T22:15:33.738Z,84.70
2017-10-14T22:18:00.415Z,84.80
2017-10-14T22:20:27.099Z,84.70
2017-10-14T22:25:34.571Z,84.70
2017-10-14T22:28:01.210Z,84.70
2017-10-14T22:30:27.891Z,84.70
2017-10-14T22:32:54.530Z,84.60
2017-10-14T22:35:21.601Z,84.70
2017-10-14T22:37:48.237Z,84.70
2017-10-14T22:40:14.914Z,84.60
2017-10-14T22:42:41.557Z,84.60
2017-10-14T22:45:08.202Z,84.70
2017-10-14T22:47:34.861Z,84.60
2017-10-14T22:50:01.505Z,84.60
2017-10-14T22:52:28.178Z,84.60
2017-10-14T22:54:54.827Z,84.60
2017-10-14T22:57:21.888Z,84.50
2017-10-14T22:59:48.522Z,84.50
2017-10-14T23:02:15.222Z,84.50
2017-10-14T23:04:41.862Z,84.50
2017-10-14T23:07:08.509Z,84.50
2017-10-14T23:09:35.173Z,84.50
2017-10-14T23:12:01.810Z,84.50
2017-10-14T23:14:28.470Z,84.50
2017-10-14T23:16:55.108Z,84.50
2017-10-14T23:19:21.821Z,84.50
2017-10-14T23:21:48.717Z,84.50
2017-10-14T23:27:04.145Z,84.40
2017-10-14T23:29:30.790Z,84.50
2017-10-14T23:31:57.493Z,84.40
2017-10-14T23:34:24.137Z,84.50
2017-10-14T23:36:50.818Z,84.40
2017-10-14T23:39:17.458Z,84.40
2017-10-14T23:41:44.137Z,84.40
2017-10-14T23:44:10.777Z,84.40
2017-10-14T23:46:37.438Z,84.40
2017-10-14T23:49:04.109Z,84.40
2017-10-14T23:51:30.745Z,84.40
2017-10-14T23:56:47.079Z,84.40
2017-10-14T23:59:14.154Z,84.40
